Time;durP1;ratioP1;P1;durP2;ratioP2;P2;SDS_P1;SDS_P2;PMS_P1;PMS_P2;Temp;Humidity;BMP_temperature;BMP_pressure;BME280_temperature;BME280_humidity;BME280_pressure;Samples;Min_cycle;Max_cycle;Signal;HPM_P1;HPM_P2
2023/05/09 00:00:30;;;;;;;31.95;25.52;;;;;;;;;;5016744;28;20072;-60
2023/05/09 00:02:56;;;;;;;30.13;25.42;;;;;;;;;;5011056;28;20105;-59
2023/05/09 00:05:22;;;;;;;30.35;24.90;;;;;;;;;;5036207;28;20449;-59
2023/05/09 00:07:48;;;;;;;31.33;26.65;;;;;;;;;;5036365;28;20120;-60
2023/05/09 00:10:14;;;;;;;31.92;26.73;;;;;;;;;;5036064;28;20433;-60
2023/05/09 00:12:42;;;;;;;30.58;24.85;;;;;;;;;;5018999;28;20432;-60
2023/05/09 00:15:08;;;;;;;30.67;26.37;;;;;;;;;;5036115;28;20021;-59
2023/05/09 00:17:38;;;;;;;33.17;27.00;;;;;;;;;;5036548;28;20021;-60
2023/05/09 00:20:07;;;;;;;30.70;26.00;;;;;;;;;;5036579;28;20087;-60
2023/05/09 00:22:33;;;;;;;32.53;27.67;;;;;;;;;;5036457;28;20033;-60
2023/05/09 00:24:59;;;;;;;32.60;28.00;;;;;;;;;;5018083;28;20064;-60
2023/05/09 00:27:29;;;;;;;30.23;25.00;;;;;;;;;;5035881;28;20022;-60
2023/05/09 00:29:55;;;;;;;32.47;26.45;;;;;;;;;;5035627;28;20024;-57
2023/05/09 00:32:21;;;;;;;30.10;24.55;;;;;;;;;;5018139;28;20393;-60
2023/05/09 00:34:47;;;;;;;31.05;26.48;;;;;;;;;;5035229;28;20047;-59
2023/05/09 00:37:13;;;;;;;30.05;25.13;;;;;;;;;;5017545;28;20017;-59
2023/05/09 00:39:39;;;;;;;31.90;26.45;;;;;;;;;;5018454;28;20547;-60
2023/05/09 00:42:05;;;;;;;33.00;26.98;;;;;;;;;;5016855;28;20142;-61
2023/05/09 00:44:31;;;;;;;34.28;27.67;;;;;;;;;;5016711;28;20026;-60
2023/05/09 00:46:57;;;;;;;32.67;28.17;;;;;;;;;;5016532;28;20045;-61
2023/05/09 00:49:23;;;;;;;31.08;26.13;;;;;;;;;;5016143;28;20030;-59
2023/05/09 00:51:49;;;;;;;29.17;24.60;;;;;;;;;;5016120;28;20065;-60
2023/05/09 00:54:15;;;;;;;30.98;25.98;;;;;;;;;;5015785;28;20405;-60
2023/05/09 00:59:44;;;;;;;28.83;24.10;;;;;;;;;;5016170;28;20045;-60
2023/05/09 01:02:11;;;;;;;28.23;23.77;;;;;;;;;;5016221;28;20026;-60
2023/05/09 01:04:37;;;;;;;30.02;24.30;;;;;;;;;;4997468;28;20402;-60
2023/05/09 01:07:34;;;;;;;29.65;23.88;;;;;;;;;;5015230;28;20463;-58
2023/05/09 01:10:00;;;;;;;29.45;24.52;;;;;;;;;;4997897;28;20037;-60
2023/05/09 01:12:29;;;;;;;29.63;25.58;;;;;;;;;;5015275;28;20112;-60
2023/05/09 01:15:00;;;;;;;30.50;25.13;;;;;;;;;;5015206;28;20022;-60
2023/05/09 01:18:03;;;;;;;30.10;23.20;;;;;;;;;;4997236;28;20117;-60
2023/05/09 01:20:45;;;;;;;28.30;23.02;;;;;;;;;;5015359;28;20026;-58
2023/05/09 01:23:14;;;;;;;30.65;23.33;;;;;;;;;;5016197;28;20026;-60
2023/05/09 01:25:40;;;;;;;31.58;24.85;;;;;;;;;;5015668;28;20590;-60
2023/05/09 01:28:12;;;;;;;30.77;24.10;;;;;;;;;;5015693;28;20061;-60
2023/05/09 01:30:38;;;;;;;29.92;25.00;;;;;;;;;;5015908;28;20045;-57
2023/05/09 01:33:06;;;;;;;28.75;24.10;;;;;;;;;;5015153;28;20482;-60
2023/05/09 01:35:35;;;;;;;27.47;23.60;;;;;;;;;;5015304;28;20026;-60
2023/05/09 01:38:21;;;;;;;31.00;25.30;;;;;;;;;;5015242;28;20269;-59
2023/05/09 01:40:48;;;;;;;31.45;24.70;;;;;;;;;;5015770;28;20033;-60
2023/05/09 01:43:16;;;;;;;29.60;24.70;;;;;;;;;;4997617;28;20477;-59
2023/05/09 01:45:42;;;;;;;30.07;24.93;;;;;;;;;;5015103;28;20448;-60
2023/05/09 01:48:09;;;;;;;29.20;25.25;;;;;;;;;;4997766;28;20272;-60
2023/05/09 01:50:35;;;;;;;32.65;24.92;;;;;;;;;;5015464;28;20117;-60
2023/05/09 01:53:01;;;;;;;29.55;24.88;;;;;;;;;;4997302;28;20030;-60
2023/05/09 01:55:31;;;;;;;31.15;24.83;;;;;;;;;;5016579;28;20040;-60
2023/05/09 01:57:58;;;;;;;30.20;24.73;;;;;;;;;;5018590;28;20053;-59
2023/05/09 02:00:24;;;;;;;31.58;24.40;;;;;;;;;;5015484;28;20097;-60
2023/05/09 02:02:51;;;;;;;29.58;25.00;;;;;;;;;;5018520;28;20022;-60
2023/05/09 02:05:17;;;;;;;31.67;25.08;;;;;;;;;;5000832;28;20022;-58
2023/05/09 02:07:45;;;;;;;29.67;24.05;;;;;;;;;;5018160;28;20034;-60
2023/05/09 02:10:11;;;;;;;31.05;26.17;;;;;;;;;;5019433;28;20025;-60
2023/05/09 02:12:37;;;;;;;30.95;24.38;;;;;;;;;;5019148;28;20033;-59
2023/05/09 02:15:04;;;;;;;28.08;23.15;;;;;;;;;;5001635;28;20031;-60
2023/05/09 02:17:52;;;;;;;28.17;24.25;;;;;;;;;;5019944;28;20044;-60
2023/05/09 02:20:18;;;;;;;30.77;22.73;;;;;;;;;;5018963;28;20026;-59
2023/05/09 02:22:44;;;;;;;28.65;22.70;;;;;;;;;;5019148;28;20120;-60
2023/05/09 02:25:13;;;;;;;28.30;22.83;;;;;;;;;;5019137;28;20026;-59
2023/05/09 02:27:39;;;;;;;32.30;24.85;;;;;;;;;;5018302;28;20057;-59
2023/05/09 02:30:07;;;;;;;30.33;24.70;;;;;;;;;;5017942;28;20412;-60
2023/05/09 02:32:34;;;;;;;30.48;25.63;;;;;;;;;;5018559;28;20065;-59
2023/05/09 02:35:00;;;;;;;29.17;24.27;;;;;;;;;;5000192;28;20060;-59
2023/05/09 02:40:30;;;;;;;30.05;24.67;;;;;;;;;;5018748;28;20065;-59
2023/05/09 02:42:57;;;;;;;30.08;24.08;;;;;;;;;;5018242;28;20116;-59
2023/05/09 02:45:22;;;;;;;31.38;24.45;;;;;;;;;;5000465;28;20049;-60
2023/05/09 02:47:48;;;;;;;32.90;26.08;;;;;;;;;;5018188;28;20370;-60
2023/05/09 02:50:14;;;;;;;29.08;23.27;;;;;;;;;;5018346;28;20026;-58
2023/05/09 02:52:40;;;;;;;29.67;24.27;;;;;;;;;;5018169;28;20123;-57
2023/05/09 02:55:07;;;;;;;29.58;22.90;;;;;;;;;;5018626;28;20022;-58
2023/05/09 02:57:33;;;;;;;28.17;23.20;;;;;;;;;;5018215;28;20049;-58
2023/05/09 02:59:59;;;;;;;29.08;24.20;;;;;;;;;;5018193;28;20088;-60
2023/05/09 03:02:25;;;;;;;27.65;22.20;;;;;;;;;;5017556;28;20033;-58
2023/05/09 03:04:52;;;;;;;29.58;23.83;;;;;;;;;;5000111;28;20030;-58
2023/05/09 03:07:18;;;;;;;30.33;24.52;;;;;;;;;;5018539;28;20022;-60
2023/05/09 03:09:44;;;;;;;31.40;24.17;;;;;;;;;;5018878;28;20025;-60
2023/05/09 03:12:10;;;;;;;29.63;22.92;;;;;;;;;;5018694;28;20033;-60
2023/05/09 03:14:36;;;;;;;28.33;23.48;;;;;;;;;;5018406;28;20037;-60
2023/05/09 03:20:06;;;;;;;27.20;22.85;;;;;;;;;;5018212;28;20041;-59
2023/05/09 03:22:32;;;;;;;28.90;22.85;;;;;;;;;;5016777;28;20014;-60
2023/05/09 03:24:58;;;;;;;28.85;24.50;;;;;;;;;;5017208;28;20032;-60
2023/05/09 03:27:25;;;;;;;27.38;22.45;;;;;;;;;;5017277;28;20085;-60
2023/05/09 03:29:51;;;;;;;27.45;23.38;;;;;;;;;;5018190;28;20032;-60
2023/05/09 03:32:17;;;;;;;27.98;22.55;;;;;;;;;;5017760;28;20018;-60
2023/05/09 03:34:43;;;;;;;30.67;21.27;;;;;;;;;;5017689;28;20039;-59
2023/05/09 03:40:12;;;;;;;28.50;21.92;;;;;;;;;;5018495;28;20048;-59
2023/05/09 03:42:38;;;;;;;34.25;20.77;;;;;;;;;;5017721;28;20026;-59
2023/05/09 03:45:04;;;;;;;25.75;20.40;;;;;;;;;;5017444;28;20037;-60
2023/05/09 03:50:33;;;;;;;26.40;22.08;;;;;;;;;;5018311;28;20024;-56
2023/05/09 03:52:59;;;;;;;25.38;20.80;;;;;;;;;;5017941;28;20117;-60
2023/05/09 03:55:25;;;;;;;27.30;23.10;;;;;;;;;;5017180;28;20101;-60
2023/05/09 03:57:51;;;;;;;26.50;21.35;;;;;;;;;;5017621;28;20498;-60
2023/05/09 04:00:17;;;;;;;27.08;21.73;;;;;;;;;;5016797;28;20366;-60
2023/05/09 04:02:43;;;;;;;25.85;21.50;;;;;;;;;;4999329;28;20093;-58
2023/05/09 04:05:09;;;;;;;26.30;21.67;;;;;;;;;;5016618;28;20371;-59
2023/05/09 04:07:57;;;;;;;27.42;21.70;;;;;;;;;;5016707;28;20086;-60
2023/05/09 04:10:24;;;;;;;27.45;21.45;;;;;;;;;;4999345;28;20498;-60
2023/05/09 04:12:50;;;;;;;28.02;21.95;;;;;;;;;;5017829;28;20041;-60
2023/05/09 04:15:16;;;;;;;27.08;21.83;;;;;;;;;;5017018;28;20463;-60
2023/05/09 04:17:42;;;;;;;25.52;21.33;;;;;;;;;;5016171;28;20182;-60
2023/05/09 04:20:09;;;;;;;27.40;21.67;;;;;;;;;;5017246;28;20022;-60
2023/05/09 04:22:35;;;;;;;26.00;21.83;;;;;;;;;;5017476;28;20038;-60
2023/05/09 04:25:03;;;;;;;24.65;21.15;;;;;;;;;;5017073;28;20149;-58
2023/05/09 04:27:29;;;;;;;26.95;22.63;;;;;;;;;;5016705;28;20132;-60
2023/05/09 04:29:55;;;;;;;27.52;22.52;;;;;;;;;;5016958;28;20163;-58
2023/05/09 04:32:21;;;;;;;26.58;21.42;;;;;;;;;;4999843;28;20029;-60
2023/05/09 04:34:47;;;;;;;26.63;21.50;;;;;;;;;;5018241;28;20025;-60
2023/05/09 04:37:13;;;;;;;25.08;20.08;;;;;;;;;;5017075;28;20077;-60
2023/05/09 04:39:39;;;;;;;27.27;22.13;;;;;;;;;;5017010;28;20382;-60
2023/05/09 04:42:05;;;;;;;29.27;22.33;;;;;;;;;;5017396;28;20437;-60
2023/05/09 04:44:32;;;;;;;25.05;20.33;;;;;;;;;;5017302;28;20022;-58
2023/05/09 04:47:20;;;;;;;28.25;20.42;;;;;;;;;;5016786;28;20036;-59
2023/05/09 04:49:46;;;;;;;28.17;20.95;;;;;;;;;;4998609;28;20082;-60
2023/05/09 04:52:12;;;;;;;27.90;21.80;;;;;;;;;;5017229;28;20077;-56
2023/05/09 04:54:38;;;;;;;25.45;20.77;;;;;;;;;;5013583;28;20033;-57
2023/05/09 04:57:05;;;;;;;27.75;22.00;;;;;;;;;;5010080;28;20491;-60
2023/05/09 04:59:31;;;;;;;26.17;20.60;;;;;;;;;;5013230;28;20099;-61
2023/05/09 05:01:57;;;;;;;26.80;22.02;;;;;;;;;;5015391;28;20071;-60
2023/05/09 05:04:23;;;;;;;25.95;20.58;;;;;;;;;;5015768;28;20038;-61
2023/05/09 05:06:49;;;;;;;26.85;20.23;;;;;;;;;;5015956;28;20021;-61
2023/05/09 05:09:15;;;;;;;27.20;21.50;;;;;;;;;;5015380;28;20018;-61
2023/05/09 05:11:41;;;;;;;25.73;21.45;;;;;;;;;;5015329;28;20558;-59
2023/05/09 05:14:07;;;;;;;26.83;22.20;;;;;;;;;;5015750;28;20022;-61
2023/05/09 05:16:33;;;;;;;26.88;20.48;;;;;;;;;;4997145;28;20041;-61
2023/05/09 05:18:59;;;;;;;29.35;21.35;;;;;;;;;;5015321;28;20367;-61
2023/05/09 05:21:25;;;;;;;25.67;21.23;;;;;;;;;;5015202;28;20478;-58
2023/05/09 05:23:51;;;;;;;26.45;21.50;;;;;;;;;;5015182;28;20116;-58
2023/05/09 05:26:17;;;;;;;28.27;22.50;;;;;;;;;;4997303;28;20030;-61
2023/05/09 05:28:43;;;;;;;29.63;22.27;;;;;;;;;;5015529;28;20441;-61
2023/05/09 05:31:09;;;;;;;27.55;21.67;;;;;;;;;;5015543;28;20076;-62
2023/05/09 05:33:35;;;;;;;26.45;21.85;;;;;;;;;;5015865;28;20026;-57
2023/05/09 05:36:01;;;;;;;28.52;22.17;;;;;;;;;;4997128;28;20037;-59
2023/05/09 05:38:27;;;;;;;26.77;22.00;;;;;;;;;;5015610;28;20160;-60
2023/05/09 05:40:53;;;;;;;25.52;20.90;;;;;;;;;;5015477;28;20091;-59
2023/05/09 05:43:19;;;;;;;27.83;21.75;;;;;;;;;;5015539;28;20033;-57
2023/05/09 05:45:45;;;;;;;26.65;22.05;;;;;;;;;;4998586;28;20058;-60
2023/05/09 05:48:11;;;;;;;26.00;20.80;;;;;;;;;;5016210;28;20084;-60
2023/05/09 05:50:37;;;;;;;28.05;21.95;;;;;;;;;;4998210;28;20061;-58
2023/05/09 05:53:03;;;;;;;27.40;22.15;;;;;;;;;;5016382;28;20033;-59
2023/05/09 05:55:29;;;;;;;27.17;21.77;;;;;;;;;;5016474;28;20105;-59
2023/05/09 05:57:55;;;;;;;26.52;21.25;;;;;;;;;;5024033;23;20076;-59
2023/05/09 06:00:21;;;;;;;25.10;21.52;;;;;;;;;;5014389;28;20066;-60
2023/05/09 06:02:48;;;;;;;26.02;21.50;;;;;;;;;;5011442;28;20029;-58
2023/05/09 06:05:14;;;;;;;27.73;22.00;;;;;;;;;;5012263;28;20041;-60
2023/05/09 06:07:40;;;;;;;26.88;21.80;;;;;;;;;;5010869;28;20397;-60
2023/05/09 06:10:07;;;;;;;25.20;20.60;;;;;;;;;;4993525;28;20096;-56
2023/05/09 06:12:33;;;;;;;30.20;22.33;;;;;;;;;;4993307;28;20052;-56
2023/05/09 06:14:59;;;;;;;26.90;22.50;;;;;;;;;;5010677;28;20030;-58
2023/05/09 06:17:25;;;;;;;28.13;22.65;;;;;;;;;;5010727;28;20050;-56
2023/05/09 06:19:51;;;;;;;29.00;23.00;;;;;;;;;;5011321;28;20402;-58
2023/05/09 06:22:17;;;;;;;28.67;22.77;;;;;;;;;;5010668;28;20100;-60
2023/05/09 06:24:43;;;;;;;28.60;22.48;;;;;;;;;;5010664;28;20034;-59
2023/05/09 06:27:10;;;;;;;30.92;23.88;;;;;;;;;;5010819;28;20037;-58
2023/05/09 06:29:36;;;;;;;26.50;22.67;;;;;;;;;;5011174;28;20105;-56
2023/05/09 06:32:36;;;;;;;27.33;22.52;;;;;;;;;;5010965;28;20070;-59
2023/05/09 06:35:02;;;;;;;29.05;21.60;;;;;;;;;;5010804;28;20112;-57
2023/05/09 06:37:32;;;;;;;26.88;22.33;;;;;;;;;;4992972;28;20026;-60
2023/05/09 06:39:58;;;;;;;27.27;22.38;;;;;;;;;;5011020;28;20069;-60
2023/05/09 06:42:24;;;;;;;26.80;21.98;;;;;;;;;;5014281;28;20026;-60
2023/05/09 06:44:50;;;;;;;28.65;22.67;;;;;;;;;;5014051;28;20022;-60
2023/05/09 06:47:16;;;;;;;29.42;23.02;;;;;;;;;;5013855;28;20045;-60
2023/05/09 06:49:42;;;;;;;26.95;21.83;;;;;;;;;;5014579;28;20391;-59
2023/05/09 06:52:17;;;;;;;29.42;22.95;;;;;;;;;;5014664;28;20037;-60
2023/05/09 06:54:43;;;;;;;30.50;23.55;;;;;;;;;;5014190;28;20547;-57
2023/05/09 06:57:09;;;;;;;29.00;22.67;;;;;;;;;;5014470;28;20117;-58
2023/05/09 06:59:35;;;;;;;26.30;20.48;;;;;;;;;;5014470;28;20493;-59
2023/05/09 07:05:04;;;;;;;29.05;23.05;;;;;;;;;;5014574;28;20060;-60
2023/05/09 07:07:30;;;;;;;26.77;22.23;;;;;;;;;;5014454;28;20037;-58
2023/05/09 07:09:56;;;;;;;27.38;21.98;;;;;;;;;;5014497;28;20049;-60
2023/05/09 07:12:22;;;;;;;28.95;22.60;;;;;;;;;;5014431;28;20018;-60
2023/05/09 07:14:48;;;;;;;27.30;22.90;;;;;;;;;;5013736;28;20410;-59
2023/05/09 07:17:14;;;;;;;28.27;21.88;;;;;;;;;;5014231;28;20041;-59
2023/05/09 07:19:40;;;;;;;28.98;23.40;;;;;;;;;;5014229;28;20466;-58
2023/05/09 07:22:40;;;;;;;28.92;23.23;;;;;;;;;;5014146;28;20032;-59
2023/05/09 07:25:07;;;;;;;30.88;23.77;;;;;;;;;;5014014;28;20026;-58
2023/05/09 07:27:33;;;;;;;27.48;22.55;;;;;;;;;;5014017;28;20104;-60
2023/05/09 07:29:59;;;;;;;31.90;22.90;;;;;;;;;;4996913;28;20417;-61
2023/05/09 07:32:27;;;;;;;31.23;23.60;;;;;;;;;;4996640;28;20113;-59
2023/05/09 07:34:53;;;;;;;30.42;25.13;;;;;;;;;;5014481;28;20026;-58
2023/05/09 07:37:19;;;;;;;30.25;24.08;;;;;;;;;;5013869;28;20037;-59
2023/05/09 07:39:48;;;;;;;30.67;24.08;;;;;;;;;;5013796;28;20018;-59
2023/05/09 07:42:24;;;;;;;32.35;25.55;;;;;;;;;;4996057;28;20101;-59
2023/05/09 07:44:50;;;;;;;28.08;23.40;;;;;;;;;;5012813;28;20034;-53
2023/05/09 07:47:16;;;;;;;30.27;23.58;;;;;;;;;;5013512;28;20537;-59
2023/05/09 07:49:44;;;;;;;29.25;23.60;;;;;;;;;;5013581;28;20030;-59
2023/05/09 07:52:10;;;;;;;27.20;23.15;;;;;;;;;;5012237;28;20033;-59
2023/05/09 07:54:36;;;;;;;29.52;23.90;;;;;;;;;;5013240;28;20049;-57
2023/05/09 07:57:02;;;;;;;28.40;23.40;;;;;;;;;;5013314;28;20393;-57
2023/05/09 07:59:28;;;;;;;27.95;23.35;;;;;;;;;;4995796;28;20022;-59
2023/05/09 08:01:54;;;;;;;29.02;23.38;;;;;;;;;;5013437;28;20029;-57
2023/05/09 08:04:20;;;;;;;31.10;25.83;;;;;;;;;;5013409;28;20560;-56
2023/05/09 08:06:46;;;;;;;30.08;22.65;;;;;;;;;;5013184;28;20030;-57
2023/05/09 08:09:12;;;;;;;26.80;21.67;;;;;;;;;;5013112;28;20589;-55
2023/05/09 08:11:38;;;;;;;28.98;23.13;;;;;;;;;;5012878;28;20034;-56
2023/05/09 08:14:04;;;;;;;27.15;22.45;;;;;;;;;;4995462;28;20026;-56
2023/05/09 08:16:30;;;;;;;28.15;22.65;;;;;;;;;;5013053;28;20113;-57
2023/05/09 08:18:56;;;;;;;28.45;22.45;;;;;;;;;;5013080;28;20021;-56
2023/05/09 08:21:23;;;;;;;31.60;23.33;;;;;;;;;;4995772;28;20029;-55
2023/05/09 08:23:48;;;;;;;29.63;22.45;;;;;;;;;;5013162;28;20046;-58
2023/05/09 08:26:48;;;;;;;27.00;22.25;;;;;;;;;;5013024;28;20045;-55
2023/05/09 08:29:16;;;;;;;29.70;22.45;;;;;;;;;;5013396;28;20018;-56
2023/05/09 08:31:42;;;;;;;27.50;22.58;;;;;;;;;;5020633;28;20129;-57
2023/05/09 08:34:08;;;;;;;25.67;21.95;;;;;;;;;;5022289;28;20043;-58
2023/05/09 08:39:52;;;;;;;28.05;22.80;;;;;;;;;;5012775;28;20045;-55
2023/05/09 08:42:21;;;;;;;29.30;23.42;;;;;;;;;;5012509;28;20030;-58
2023/05/09 08:44:47;;;;;;;26.42;22.90;;;;;;;;;;5012179;28;20057;-59
2023/05/09 08:47:20;;;;;;;26.17;22.75;;;;;;;;;;5011932;28;20072;-59
2023/05/09 08:49:46;;;;;;;26.20;22.85;;;;;;;;;;5012657;28;20021;-57
2023/05/09 08:52:13;;;;;;;25.80;22.48;;;;;;;;;;5012571;28;20032;-58
2023/05/09 08:54:39;;;;;;;26.95;21.95;;;;;;;;;;4994575;28;20037;-58
2023/05/09 08:57:14;;;;;;;25.25;21.30;;;;;;;;;;5012299;28;20030;-58
2023/05/09 08:59:41;;;;;;;27.17;22.35;;;;;;;;;;5012182;28;20018;-56
2023/05/09 09:02:08;;;;;;;27.73;22.40;;;;;;;;;;5012284;28;20018;-58
2023/05/09 09:04:34;;;;;;;26.05;21.92;;;;;;;;;;5011901;28;20030;-58
2023/05/09 09:07:28;;;;;;;24.50;21.08;;;;;;;;;;5012537;28;20032;-56
2023/05/09 09:09:54;;;;;;;25.92;21.92;;;;;;;;;;5012433;28;20037;-58
2023/05/09 09:12:22;;;;;;;25.95;21.98;;;;;;;;;;5012625;28;20048;-58
2023/05/09 09:14:49;;;;;;;26.23;21.25;;;;;;;;;;5012279;28;20096;-63
2023/05/09 09:20:21;;;;;;;28.58;22.55;;;;;;;;;;5011990;28;20394;-56
2023/05/09 09:22:47;;;;;;;26.50;21.25;;;;;;;;;;5012197;28;20021;-56
2023/05/09 09:25:13;;;;;;;26.88;22.48;;;;;;;;;;5012333;28;20030;-58
2023/05/09 09:27:40;;;;;;;27.90;22.73;;;;;;;;;;5011961;28;20026;-58
2023/05/09 09:30:07;;;;;;;27.05;22.73;;;;;;;;;;5011874;28;20018;-56
2023/05/09 09:32:33;;;;;;;25.95;22.20;;;;;;;;;;5011190;28;20073;-57
2023/05/09 09:35:06;;;;;;;28.10;22.63;;;;;;;;;;5011638;28;20068;-53
2023/05/09 09:37:36;;;;;;;26.25;21.92;;;;;;;;;;5011803;28;20054;-56
2023/05/09 09:40:03;;;;;;;27.25;23.38;;;;;;;;;;5011937;28;20529;-55
2023/05/09 09:42:57;;;;;;;27.10;22.92;;;;;;;;;;5011742;28;20022;-54
2023/05/09 09:45:23;;;;;;;26.02;22.88;;;;;;;;;;5011404;28;20033;-56
2023/05/09 09:47:49;;;;;;;28.85;22.80;;;;;;;;;;4993768;28;20026;-55
2023/05/09 09:50:21;;;;;;;31.65;23.63;;;;;;;;;;5011734;28;20097;-58
2023/05/09 09:52:59;;;;;;;27.65;22.65;;;;;;;;;;5011533;28;20140;-55
2023/05/09 09:55:25;;;;;;;28.63;22.83;;;;;;;;;;5011253;28;20130;-58
2023/05/09 09:57:51;;;;;;;29.45;21.23;;;;;;;;;;5011727;28;20062;-58
2023/05/09 10:00:35;;;;;;;25.90;21.75;;;;;;;;;;5011706;28;20022;-58
2023/05/09 10:03:26;;;;;;;27.73;21.75;;;;;;;;;;5011640;28;20037;-57
2023/05/09 10:06:00;;;;;;;26.70;22.45;;;;;;;;;;5011343;28;20026;-55
2023/05/09 10:08:26;;;;;;;26.55;22.92;;;;;;;;;;5011415;28;20505;-57
2023/05/09 10:13:56;;;;;;;28.63;22.42;;;;;;;;;;5010962;28;20080;-57
2023/05/09 10:16:22;;;;;;;25.58;21.70;;;;;;;;;;5014192;28;20494;-54
2023/05/09 10:18:48;;;;;;;27.88;22.30;;;;;;;;;;5015899;28;20026;-57
2023/05/09 10:21:49;;;;;;;26.02;21.02;;;;;;;;;;5015307;28;20029;-56
2023/05/09 10:24:16;;;;;;;24.27;20.85;;;;;;;;;;5014964;28;20471;-58
2023/05/09 10:26:45;;;;;;;24.85;20.58;;;;;;;;;;5015020;28;20030;-54
2023/05/09 10:29:12;;;;;;;27.13;21.75;;;;;;;;;;5015291;28;20390;-53
2023/05/09 10:31:47;;;;;;;28.17;21.65;;;;;;;;;;5016289;28;20068;-51
2023/05/09 10:34:14;;;;;;;28.13;21.02;;;;;;;;;;5015909;28;20041;-55
2023/05/09 10:36:40;;;;;;;24.88;19.77;;;;;;;;;;4997046;28;20080;-53
2023/05/09 10:39:06;;;;;;;23.92;20.88;;;;;;;;;;5014700;28;20022;-54
2023/05/09 10:44:36;;;;;;;26.40;18.70;;;;;;;;;;5014732;28;20037;-55
2023/05/09 10:47:03;;;;;;;22.50;18.90;;;;;;;;;;5014475;28;20040;-56
2023/05/09 10:49:29;;;;;;;23.15;18.88;;;;;;;;;;5014695;28;20398;-53
2023/05/09 10:51:55;;;;;;;22.88;19.50;;;;;;;;;;5014535;28;20102;-58
2023/05/09 10:54:28;;;;;;;22.77;18.17;;;;;;;;;;5014173;28;20545;-57
2023/05/09 10:56:55;;;;;;;24.08;19.40;;;;;;;;;;5014247;28;20041;-57
2023/05/09 10:59:35;;;;;;;22.00;18.98;;;;;;;;;;5014554;28;20026;-58
2023/05/09 11:02:14;;;;;;;25.35;19.77;;;;;;;;;;5014648;28;20029;-57
2023/05/09 11:04:40;;;;;;;22.88;18.67;;;;;;;;;;5014488;28;20026;-55
2023/05/09 11:07:23;;;;;;;21.48;17.10;;;;;;;;;;4996760;28;20061;-58
2023/05/09 11:09:53;;;;;;;22.67;18.05;;;;;;;;;;5014409;28;20053;-59
2023/05/09 11:15:22;;;;;;;21.40;16.60;;;;;;;;;;5015117;28;20057;-56
2023/05/09 11:18:04;;;;;;;22.33;15.40;;;;;;;;;;5014187;28;20494;-58
2023/05/09 11:20:34;;;;;;;19.60;16.38;;;;;;;;;;5014423;28;20030;-58
2023/05/09 11:23:24;;;;;;;20.15;17.10;;;;;;;;;;5013561;28;20022;-55
2023/05/09 11:25:51;;;;;;;20.92;17.08;;;;;;;;;;5013506;28;20022;-54
2023/05/09 11:28:28;;;;;;;21.05;17.58;;;;;;;;;;5014027;28;20030;-55
2023/05/09 11:30:54;;;;;;;20.27;16.60;;;;;;;;;;5014312;28;20018;-59
2023/05/09 11:36:28;;;;;;;20.60;16.65;;;;;;;;;;5013637;28;20543;-57
2023/05/09 11:39:01;;;;;;;22.30;17.63;;;;;;;;;;4996459;28;20461;-57
2023/05/09 11:42:07;;;;;;;22.02;18.08;;;;;;;;;;5019511;28;20042;-58
2023/05/09 11:44:34;;;;;;;20.15;16.70;;;;;;;;;;5014864;28;20429;-56
2023/05/09 11:47:00;;;;;;;19.65;16.40;;;;;;;;;;5019385;28;20029;-58
2023/05/09 11:49:27;;;;;;;20.00;16.70;;;;;;;;;;5025946;28;20041;-59
2023/05/09 11:54:58;;;;;;;22.58;17.55;;;;;;;;;;5015296;28;20065;-58
2023/05/09 11:57:24;;;;;;;20.85;16.52;;;;;;;;;;5032708;22;20100;-53
2023/05/09 11:59:50;;;;;;;21.75;16.77;;;;;;;;;;5013923;28;20470;-55
2023/05/09 12:02:16;;;;;;;19.80;16.40;;;;;;;;;;5031844;28;20028;-55
2023/05/09 12:04:42;;;;;;;19.85;16.52;;;;;;;;;;5031336;28;20026;-58
2023/05/09 12:07:10;;;;;;;18.45;15.98;;;;;;;;;;5031632;28;20452;-55
2023/05/09 12:09:37;;;;;;;19.17;16.27;;;;;;;;;;5031803;28;20098;-56
2023/05/09 12:12:19;;;;;;;19.90;16.58;;;;;;;;;;5031462;28;20025;-57
2023/05/09 12:14:45;;;;;;;19.98;16.17;;;;;;;;;;5031065;28;20037;-56
2023/05/09 12:17:11;;;;;;;17.90;15.52;;;;;;;;;;5031483;28;20041;-58
2023/05/09 12:19:37;;;;;;;18.08;15.00;;;;;;;;;;5030967;28;20079;-53
2023/05/09 12:22:05;;;;;;;17.95;15.07;;;;;;;;;;5030947;28;20065;-56
2023/05/09 12:24:31;;;;;;;18.20;15.23;;;;;;;;;;5030849;28;20049;-55
2023/05/09 12:26:58;;;;;;;18.63;14.85;;;;;;;;;;5031091;28;20025;-53
2023/05/09 12:29:25;;;;;;;17.52;14.35;;;;;;;;;;5031158;28;20072;-57
2023/05/09 12:32:09;;;;;;;18.65;15.02;;;;;;;;;;5031156;28;20025;-55
2023/05/09 12:34:35;;;;;;;19.25;14.52;;;;;;;;;;5006529;28;20057;-54
2023/05/09 12:37:02;;;;;;;20.05;15.32;;;;;;;;;;5030256;28;20025;-56
2023/05/09 12:39:28;;;;;;;17.88;15.00;;;;;;;;;;5029935;28;20018;-58
2023/05/09 12:41:54;;;;;;;18.70;15.65;;;;;;;;;;5031203;28;20028;-58
2023/05/09 12:44:21;;;;;;;18.40;15.15;;;;;;;;;;5012919;28;20033;-57
2023/05/09 12:46:57;;;;;;;18.23;14.32;;;;;;;;;;5013107;28;20036;-55
2023/05/09 12:49:24;;;;;;;19.75;14.80;;;;;;;;;;5030777;28;20406;-57
2023/05/09 12:51:51;;;;;;;18.92;13.95;;;;;;;;;;5030562;28;20029;-53
2023/05/09 12:54:21;;;;;;;20.33;14.80;;;;;;;;;;5024879;28;20577;-53
2023/05/09 12:56:47;;;;;;;19.08;14.73;;;;;;;;;;5030441;28;20092;-57
2023/05/09 12:59:14;;;;;;;17.75;14.60;;;;;;;;;;5030368;28;20068;-54
2023/05/09 13:01:40;;;;;;;22.33;15.60;;;;;;;;;;5030719;28;20076;-56
2023/05/09 13:04:06;;;;;;;18.70;14.85;;;;;;;;;;5030464;28;20025;-54
2023/05/09 13:06:33;;;;;;;18.90;14.43;;;;;;;;;;5030072;28;20033;-56
2023/05/09 13:09:00;;;;;;;21.98;15.50;;;;;;;;;;5030231;28;20030;-57
2023/05/09 13:11:44;;;;;;;19.27;15.43;;;;;;;;;;5030752;28;20040;-57
2023/05/09 13:14:10;;;;;;;18.73;15.15;;;;;;;;;;5011806;28;20025;-53
2023/05/09 13:16:37;;;;;;;18.92;15.55;;;;;;;;;;5029614;28;20064;-54
2023/05/09 13:19:04;;;;;;;17.90;14.73;;;;;;;;;;5030285;28;20490;-57
2023/05/09 13:21:30;;;;;;;19.30;15.85;;;;;;;;;;5030570;28;20623;-56
2023/05/09 13:23:56;;;;;;;20.35;16.02;;;;;;;;;;5026492;28;20493;-55
2023/05/09 13:26:22;;;;;;;19.63;16.27;;;;;;;;;;5029934;28;20423;-58
2023/05/09 13:28:48;;;;;;;21.30;15.90;;;;;;;;;;5030010;28;20025;-56
2023/05/09 13:31:27;;;;;;;18.23;14.93;;;;;;;;;;5030224;28;20529;-59
2023/05/09 13:33:53;;;;;;;18.88;15.50;;;;;;;;;;5029764;28;20030;-53
2023/05/09 13:36:19;;;;;;;22.20;15.98;;;;;;;;;;5030064;28;20064;-58
2023/05/09 13:38:45;;;;;;;20.05;16.40;;;;;;;;;;5030057;28;20014;-58
2023/05/09 13:41:39;;;;;;;23.90;16.95;;;;;;;;;;5030097;28;20029;-56
2023/05/09 13:44:05;;;;;;;20.20;15.60;;;;;;;;;;5027514;28;20120;-55
2023/05/09 13:46:31;;;;;;;36.55;32.90;;;;;;;;;;5012148;28;20060;-54
2023/05/09 13:48:57;;;;;;;41.25;37.65;;;;;;;;;;5030091;28;20026;-56
2023/05/09 13:51:54;;;;;;;43.85;40.50;;;;;;;;;;5029538;28;20034;-54
2023/05/09 13:54:21;;;;;;;55.08;50.88;;;;;;;;;;5029721;28;20083;-55
2023/05/09 13:56:50;;;;;;;;;;;;;;;;;;5027221;28;20107;-49
2023/05/09 13:59:16;;;;;;;62.95;58.35;;;;;;;;;;5021458;28;20431;-53
2023/05/09 14:01:42;;;;;;;69.60;64.05;;;;;;;;;;5029685;28;20392;-51
2023/05/09 14:04:08;;;;;;;77.68;71.82;;;;;;;;;;5028184;28;20087;-49
2023/05/09 14:06:34;;;;;;;80.15;73.63;;;;;;;;;;5029663;28;20030;-56
2023/05/09 14:09:00;;;;;;;83.18;76.75;;;;;;;;;;5029738;28;20036;-54
2023/05/09 14:11:26;;;;;;;74.88;69.03;;;;;;;;;;4675808;28;10000540;-56
2023/05/09 14:13:52;;;;;;;78.10;72.18;;;;;;;;;;5016965;28;20025;-56
2023/05/09 14:16:19;;;;;;;73.90;68.43;;;;;;;;;;5024877;28;20112;-53
2023/05/09 14:18:45;;;;;;;76.15;70.68;;;;;;;;;;5004251;28;21199;-54
2023/05/09 14:21:12;;;;;;;77.88;72.07;;;;;;;;;;5024916;28;20077;-53
2023/05/09 14:23:38;;;;;;;79.57;73.63;;;;;;;;;;5003898;28;20029;-52
2023/05/09 14:26:04;;;;;;;73.80;67.60;;;;;;;;;;5025961;28;20045;-55
2023/05/09 14:28:30;;;;;;;72.45;66.95;;;;;;;;;;5009511;28;20052;-51
2023/05/09 14:30:56;;;;;;;70.95;65.95;;;;;;;;;;5009835;28;20021;-53
2023/05/09 14:33:22;;;;;;;71.85;66.85;;;;;;;;;;5028897;28;20464;-52
2023/05/09 14:35:48;;;;;;;69.38;64.68;;;;;;;;;;5028905;28;20472;-54
2023/05/09 14:38:15;;;;;;;70.85;65.60;;;;;;;;;;5011711;28;20021;-52
2023/05/09 14:40:41;;;;;;;69.50;64.80;;;;;;;;;;5028951;28;20136;-51
2023/05/09 14:43:08;;;;;;;70.95;66.05;;;;;;;;;;5011843;28;20032;-54
2023/05/09 14:45:34;;;;;;;73.00;68.00;;;;;;;;;;5029157;28;20053;-54
2023/05/09 14:48:01;;;;;;;79.90;74.47;;;;;;;;;;5029362;28;20048;-55
2023/05/09 14:50:28;;;;;;;88.70;83.07;;;;;;;;;;5029371;28;20032;-52
2023/05/09 14:52:54;;;;;;;95.90;89.78;;;;;;;;;;5029373;28;20065;-53
2023/05/09 14:55:23;;;;;;;96.78;90.38;;;;;;;;;;5011578;28;20048;-54
2023/05/09 14:57:49;;;;;;;102.82;96.03;;;;;;;;;;5035922;28;20025;-50
2023/05/09 15:00:16;;;;;;;103.13;96.03;;;;;;;;;;5029094;28;20045;-57
2023/05/09 15:02:42;;;;;;;101.03;94.20;;;;;;;;;;5031711;28;20425;-50